createdAt,value
2022-08-19T00:02:04.498Z,22.86
2022-08-19T00:04:37.287Z,22.83
2022-08-19T00:07:08.564Z,22.81
2022-08-19T00:09:35.861Z,22.76
2022-08-19T00:12:03.470Z,22.74
2022-08-19T00:14:32.438Z,22.73
2022-08-19T00:16:59.899Z,22.71
2022-08-19T00:19:26.769Z,22.68
2022-08-19T00:21:54.475Z,22.67
2022-08-19T00:24:21.429Z,22.64
2022-08-19T00:26:48.567Z,22.60
2022-08-19T00:29:20.839Z,22.56
2022-08-19T00:31:48.146Z,22.55
2022-08-19T00:34:17.583Z,22.50
2022-08-19T00:36:45.432Z,22.48
2022-08-19T00:39:13.540Z,22.46
2022-08-19T00:41:41.499Z,22.42
2022-08-19T00:44:10.098Z,22.41
2022-08-19T00:46:41.771Z,22.35
2022-08-19T00:49:28.543Z,22.29
2022-08-19T00:52:13.376Z,22.24
2022-08-19T00:54:41.680Z,22.19
2022-08-19T00:57:15.814Z,22.14
2022-08-19T00:59:56.244Z,22.10
2022-08-19T01:02:30.793Z,22.05
2022-08-19T01:04:58.032Z,22.03
2022-08-19T01:07:25.266Z,21.98
2022-08-19T01:09:52.764Z,21.96
2022-08-19T01:12:20.349Z,21.95
2022-08-19T01:14:49.001Z,21.94
2022-08-19T01:17:17.651Z,21.91
2022-08-19T01:19:47.745Z,21.90
2022-08-19T01:22:40.648Z,21.85
2022-08-19T01:25:09.490Z,21.83
2022-08-19T01:27:48.416Z,21.84
2022-08-19T01:30:22.588Z,21.83
2022-08-19T01:32:51.054Z,21.83
2022-08-19T01:35:19.328Z,21.83
2022-08-19T01:37:58.722Z,21.82
2022-08-19T01:40:31.817Z,21.82
2022-08-19T01:42:59.099Z,21.78
2022-08-19T01:45:29.146Z,21.81
2022-08-19T01:48:02.303Z,21.80
2022-08-19T01:50:34.270Z,21.78
2022-08-19T01:53:06.477Z,21.76
2022-08-19T01:55:41.030Z,21.75
2022-08-19T01:58:17.599Z,21.75
2022-08-19T02:00:46.339Z,21.74
2022-08-19T02:03:14.258Z,21.73
2022-08-19T02:05:44.063Z,21.76
2022-08-19T02:08:12.686Z,21.75
2022-08-19T02:10:43.298Z,21.77
2022-08-19T02:13:12.694Z,21.78
2022-08-19T02:15:39.850Z,21.75
2022-08-19T02:18:07.289Z,21.77
2022-08-19T02:20:34.810Z,21.77
2022-08-19T02:23:02.180Z,21.77
2022-08-19T02:25:29.248Z,21.81
2022-08-19T02:27:56.206Z,21.80
2022-08-19T02:30:23.482Z,21.82
2022-08-19T02:32:50.282Z,21.80
2022-08-19T02:35:17.883Z,21.85
2022-08-19T02:38:03.860Z,21.84
2022-08-19T02:40:36.333Z,21.87
2022-08-19T02:43:08.387Z,21.88
2022-08-19T02:45:41.572Z,21.90
2022-08-19T02:48:14.851Z,21.89
2022-08-19T02:50:53.809Z,21.92
2022-08-19T02:53:20.832Z,21.94
2022-08-19T02:55:48.332Z,21.93
2022-08-19T02:58:16.710Z,21.92
2022-08-19T03:00:51.033Z,21.96
2022-08-19T03:03:19.771Z,21.92
2022-08-19T03:05:56.625Z,21.95
2022-08-19T03:08:26.501Z,21.95
2022-08-19T03:10:53.959Z,21.94
2022-08-19T03:13:21.172Z,21.94
2022-08-19T03:15:50.098Z,21.94
2022-08-19T03:18:17.867Z,21.92
2022-08-19T03:20:48.684Z,21.94
2022-08-19T03:23:17.297Z,21.87
2022-08-19T03:26:03.158Z,21.86
2022-08-19T03:28:35.205Z,21.83
2022-08-19T03:31:43.806Z,21.83
2022-08-19T03:33:56.528Z,21.79
2022-08-19T03:36:27.089Z,21.79
2022-08-19T03:39:00.838Z,21.76
2022-08-19T03:42:32.679Z,21.73
2022-08-19T03:44:38.921Z,21.72
2022-08-19T03:47:06.725Z,21.72
2022-08-19T03:49:36.084Z,21.71
2022-08-19T03:52:08.124Z,21.70
2022-08-19T03:54:35.472Z,21.70
2022-08-19T03:57:03.992Z,21.68
2022-08-19T03:59:36.158Z,21.67
2022-08-19T04:02:10.125Z,21.66
2022-08-19T04:04:44.026Z,21.63
2022-08-19T04:07:16.212Z,21.65
2022-08-19T04:09:43.338Z,21.66
2022-08-19T04:12:10.364Z,21.64
2022-08-19T04:14:37.350Z,21.63
2022-08-19T04:17:08.150Z,21.64
2022-08-19T04:19:36.920Z,21.61
2022-08-19T04:22:04.942Z,21.63
2022-08-19T04:24:33.123Z,21.64
2022-08-19T04:27:04.125Z,21.64
2022-08-19T04:29:31.283Z,21.62
2022-08-19T04:31:59.571Z,21.64
2022-08-19T04:34:30.585Z,21.65
2022-08-19T04:36:59.535Z,21.64
2022-08-19T04:39:49.751Z,21.67
2022-08-19T04:42:38.306Z,21.63
2022-08-19T04:45:12.266Z,21.63
2022-08-19T04:47:48.090Z,21.64
2022-08-19T04:50:26.326Z,21.64
2022-08-19T04:52:54.327Z,21.66
2022-08-19T04:55:21.437Z,21.69
2022-08-19T04:57:48.459Z,21.68
2022-08-19T05:00:15.773Z,21.73
2022-08-19T05:02:43.185Z,21.76
2022-08-19T05:05:10.451Z,21.76
2022-08-19T05:07:37.895Z,21.77
2022-08-19T05:10:07.535Z,21.81
2022-08-19T05:12:34.883Z,21.84
2022-08-19T05:15:04.010Z,21.85
2022-08-19T05:17:36.028Z,21.85
2022-08-19T05:20:28.025Z,21.90
2022-08-19T05:22:55.133Z,21.93
2022-08-19T05:25:23.570Z,21.99
2022-08-19T05:27:51.056Z,22.02
2022-08-19T05:30:33.339Z,22.11
2022-08-19T05:33:06.067Z,22.19
2022-08-19T05:35:37.420Z,22.27
2022-08-19T05:38:04.759Z,22.36
2022-08-19T05:40:31.585Z,22.43
2022-08-19T05:42:58.415Z,22.49
2022-08-19T05:45:25.661Z,22.58
2022-08-19T05:47:52.477Z,22.64
2022-08-19T05:50:19.426Z,22.71
2022-08-19T05:52:50.251Z,22.77
2022-08-19T05:55:17.967Z,22.83
2022-08-19T05:57:44.824Z,22.90
2022-08-19T06:00:14.137Z,22.96
2022-08-19T06:02:43.031Z,23.02
2022-08-19T06:05:11.239Z,23.09
2022-08-19T06:07:40.465Z,23.19
2022-08-19T06:10:11.048Z,23.27
2022-08-19T06:12:38.960Z,23.38
2022-08-19T06:15:15.301Z,23.52
2022-08-19T06:17:45.432Z,23.63
2022-08-19T06:20:15.966Z,23.78
2022-08-19T06:22:46.519Z,23.90
2022-08-19T06:25:16.067Z,24.04
2022-08-19T06:28:14.527Z,24.17
2022-08-19T06:30:30.903Z,24.31
2022-08-19T06:32:57.828Z,24.44
2022-08-19T06:35:28.125Z,24.57
2022-08-19T06:37:55.523Z,24.71
2022-08-19T06:40:23.009Z,24.86
2022-08-19T06:42:54.385Z,24.95
2022-08-19T06:45:25.023Z,25.05
2022-08-19T06:48:01.664Z,25.17
2022-08-19T06:50:28.674Z,25.28
2022-08-19T06:52:55.701Z,25.41
2022-08-19T06:55:22.823Z,25.48
2022-08-19T06:57:54.562Z,25.55
2022-08-19T07:00:21.808Z,25.71
2022-08-19T07:02:56.160Z,25.90
2022-08-19T07:05:26.336Z,26.14
2022-08-19T07:07:53.478Z,26.40
2022-08-19T07:10:25.861Z,26.65
2022-08-19T07:12:53.056Z,26.93
2022-08-19T07:15:22.218Z,27.31
2022-08-19T07:17:52.405Z,27.62
2022-08-19T07:20:22.040Z,28.02
2022-08-19T07:22:55.944Z,28.44
2022-08-19T07:25:23.031Z,28.81
2022-08-19T07:27:59.626Z,29.11
2022-08-19T07:30:28.920Z,29.35
2022-08-19T07:32:58.359Z,29.55
2022-08-19T07:35:26.074Z,29.81
2022-08-19T07:37:55.476Z,30.30
2022-08-19T07:40:22.631Z,30.95
2022-08-19T07:42:53.766Z,31.67
2022-08-19T07:45:23.059Z,32.40
2022-08-19T07:47:53.493Z,33.21
2022-08-19T07:50:22.183Z,34.05
2022-08-19T07:52:51.145Z,34.83
2022-08-19T07:55:41.391Z,35.54
2022-08-19T07:58:13.345Z,36.14
2022-08-19T08:00:43.325Z,36.46
2022-08-19T08:03:11.223Z,36.64
2022-08-19T08:05:56.773Z,36.68
2022-08-19T08:08:44.306Z,36.72
2022-08-19T08:11:21.162Z,36.81
2022-08-19T08:14:01.359Z,36.95
2022-08-19T08:16:46.915Z,37.15
2022-08-19T08:19:25.407Z,37.32
2022-08-19T08:21:59.005Z,37.50
2022-08-19T08:24:31.493Z,37.61
2022-08-19T08:27:01.200Z,37.56
2022-08-19T08:29:34.920Z,37.35
2022-08-19T08:32:14.855Z,37.18
2022-08-19T08:34:44.219Z,36.96
2022-08-19T08:37:17.095Z,36.78
2022-08-19T08:39:44.033Z,36.62
2022-08-19T08:42:33.424Z,36.71
2022-08-19T08:45:14.094Z,37.00
2022-08-19T08:47:44.003Z,37.34
2022-08-19T08:50:36.820Z,37.83
2022-08-19T08:53:08.185Z,38.24
2022-08-19T08:55:36.797Z,38.69
2022-08-19T08:58:32.196Z,39.21
2022-08-19T09:00:59.220Z,39.67
2022-08-19T09:03:31.374Z,40.08
2022-08-19T09:06:11.982Z,40.44
2022-08-19T09:08:44.071Z,40.80
2022-08-19T09:11:42.537Z,41.06
2022-08-19T09:14:52.344Z,41.41
2022-08-19T09:17:31.916Z,41.68
2022-08-19T09:20:09.210Z,41.80
2022-08-19T09:22:44.464Z,41.73
2022-08-19T09:25:17.732Z,41.50
2022-08-19T09:27:54.745Z,41.25
2022-08-19T09:30:28.224Z,41.14
2022-08-19T09:32:59.545Z,41.01
2022-08-19T09:35:32.834Z,40.97
2022-08-19T09:38:17.296Z,41.04
2022-08-19T09:40:44.506Z,40.99
2022-08-19T09:43:13.345Z,40.93
2022-08-19T09:45:47.393Z,40.83
2022-08-19T09:48:18.898Z,40.73
2022-08-19T09:50:51.609Z,40.68
2022-08-19T09:53:20.614Z,40.67
2022-08-19T09:55:47.546Z,40.66
2022-08-19T09:58:14.486Z,40.62
2022-08-19T10:00:41.616Z,40.57
2022-08-19T10:03:10.724Z,40.59
2022-08-19T10:05:55.266Z,40.56
2022-08-19T10:08:27.304Z,40.67
2022-08-19T10:10:56.080Z,40.78
2022-08-19T10:13:27.066Z,40.89
2022-08-19T10:16:04.866Z,41.02
2022-08-19T10:18:37.026Z,41.26
2022-08-19T10:21:18.899Z,41.43
2022-08-19T10:23:50.665Z,41.67
2022-08-19T10:26:30.963Z,41.88
2022-08-19T10:29:03.881Z,42.04
2022-08-19T10:32:00.534Z,42.22
2022-08-19T10:34:27.668Z,42.44
2022-08-19T10:37:00.469Z,42.69
2022-08-19T10:39:41.155Z,42.93
2022-08-19T10:42:18.035Z,43.08
2022-08-19T10:44:49.108Z,43.19
2022-08-19T10:47:25.759Z,43.31
2022-08-19T10:50:15.728Z,43.37
2022-08-19T10:52:50.831Z,43.42
2022-08-19T10:55:43.045Z,43.44
2022-08-19T10:58:23.278Z,43.49
2022-08-19T11:00:59.206Z,43.60
2022-08-19T11:03:30.403Z,43.78
2022-08-19T11:06:06.613Z,43.86
2022-08-19T11:08:35.950Z,43.66
2022-08-19T11:11:05.697Z,43.37
2022-08-19T11:13:38.321Z,43.25
2022-08-19T11:16:18.710Z,43.27
2022-08-19T11:18:55.879Z,43.44
2022-08-19T11:21:38.230Z,43.70
2022-08-19T11:24:19.262Z,43.95
2022-08-19T11:26:47.639Z,44.23
2022-08-19T11:29:16.623Z,44.34
2022-08-19T11:31:47.525Z,44.24
2022-08-19T11:34:20.895Z,43.97
2022-08-19T11:36:52.538Z,43.73
2022-08-19T11:39:28.491Z,43.66
2022-08-19T11:41:56.492Z,43.66
2022-08-19T11:44:26.334Z,43.63
2022-08-19T11:46:53.522Z,43.56
2022-08-19T11:49:22.183Z,43.54
2022-08-19T11:51:51.731Z,43.50
2022-08-19T11:54:20.753Z,43.44
2022-08-19T11:56:50.767Z,43.29
2022-08-19T11:59:17.886Z,43.09
2022-08-19T12:01:44.879Z,42.82
2022-08-19T12:04:14.351Z,42.41
2022-08-19T12:06:42.559Z,42.10
2022-08-19T12:09:16.814Z,41.79
2022-08-19T12:11:44.411Z,41.53
2022-08-19T12:14:15.164Z,41.28
2022-08-19T12:16:51.173Z,41.02
2022-08-19T12:19:21.784Z,40.79
2022-08-19T12:21:50.876Z,40.60
2022-08-19T12:24:24.236Z,40.49
2022-08-19T12:26:53.406Z,40.37
2022-08-19T12:29:23.922Z,40.24
2022-08-19T12:31:52.132Z,40.08
2022-08-19T12:34:21.042Z,39.90
2022-08-19T12:36:50.239Z,39.69
2022-08-19T12:39:19.762Z,39.49
2022-08-19T12:41:54.271Z,39.24
2022-08-19T12:44:29.237Z,39.04
2022-08-19T12:47:00.733Z,38.88
2022-08-19T12:49:52.111Z,38.74
2022-08-19T12:52:22.432Z,38.58
2022-08-19T12:54:54.516Z,38.51
2022-08-19T12:57:32.530Z,38.48
2022-08-19T13:00:10.336Z,38.42
2022-08-19T13:02:39.275Z,38.38
2022-08-19T13:05:09.494Z,38.35
2022-08-19T13:07:39.363Z,38.27
2022-08-19T13:10:16.367Z,38.23
2022-08-19T13:12:45.602Z,38.15
2022-08-19T13:15:13.182Z,38.06
2022-08-19T13:17:43.087Z,37.98
2022-08-19T13:20:11.842Z,37.95
2022-08-19T13:22:39.681Z,37.88
2022-08-19T13:25:08.488Z,37.84
2022-08-19T13:27:36.476Z,37.82
2022-08-19T13:30:26.160Z,37.79
2022-08-19T13:33:11.434Z,37.67
2022-08-19T13:35:41.306Z,37.54
2022-08-19T13:38:11.924Z,37.37
2022-08-19T13:40:41.256Z,37.21
2022-08-19T13:43:13.659Z,37.02
2022-08-19T13:45:56.772Z,36.74
2022-08-19T13:48:27.271Z,36.46
2022-08-19T13:50:54.990Z,36.24
2022-08-19T13:53:22.296Z,36.04
2022-08-19T13:55:50.906Z,35.87
2022-08-19T13:58:17.740Z,35.77
2022-08-19T14:00:47.272Z,35.69
2022-08-19T14:03:14.489Z,35.62
2022-08-19T14:05:43.748Z,35.59
2022-08-19T14:08:11.108Z,35.52
2022-08-19T14:10:38.419Z,35.44
2022-08-19T14:13:05.563Z,35.34
2022-08-19T14:15:35.730Z,35.23
2022-08-19T14:18:02.639Z,35.14
2022-08-19T14:20:29.939Z,35.08
2022-08-19T14:22:56.844Z,34.97
2022-08-19T14:25:29.056Z,34.89
2022-08-19T14:27:57.773Z,34.80
2022-08-19T14:30:36.166Z,34.84
2022-08-19T14:33:03.727Z,34.65
2022-08-19T14:35:35.614Z,34.53
2022-08-19T14:38:15.355Z,34.43
2022-08-19T14:40:43.034Z,34.40
2022-08-19T14:43:09.811Z,34.40
2022-08-19T14:45:40.747Z,34.40
2022-08-19T14:48:17.817Z,34.42
2022-08-19T14:50:46.485Z,34.46
2022-08-19T14:53:13.656Z,34.46
2022-08-19T14:55:45.585Z,34.45
2022-08-19T14:58:29.712Z,34.42
2022-08-19T15:01:00.236Z,34.37
2022-08-19T15:03:28.068Z,34.31
2022-08-19T15:05:58.424Z,34.23
2022-08-19T15:08:27.069Z,34.22
2022-08-19T15:10:54.791Z,34.17
2022-08-19T15:13:22.301Z,34.12
2022-08-19T15:15:51.455Z,34.15
2022-08-19T15:18:21.313Z,34.07
2022-08-19T15:20:50.208Z,34.00
2022-08-19T15:23:19.094Z,33.96
2022-08-19T15:25:46.921Z,33.93
2022-08-19T15:28:17.140Z,33.87
2022-08-19T15:30:44.507Z,33.81
2022-08-19T15:33:15.267Z,33.76
2022-08-19T15:35:45.108Z,33.70
2022-08-19T15:38:13.947Z,33.60
2022-08-19T15:40:42.616Z,33.52
2022-08-19T15:43:09.548Z,33.43
2022-08-19T15:45:37.817Z,33.33
2022-08-19T15:48:08.559Z,33.24
2022-08-19T15:50:35.860Z,33.17
2022-08-19T15:53:08.632Z,33.09
2022-08-19T15:55:43.652Z,32.96
2022-08-19T15:58:32.508Z,32.89
2022-08-19T16:01:23.693Z,32.79
2022-08-19T16:04:14.768Z,32.70
2022-08-19T16:06:53.242Z,32.64
2022-08-19T16:09:27.850Z,32.58
2022-08-19T16:12:02.527Z,32.54
2022-08-19T16:14:32.977Z,32.54
2022-08-19T16:17:02.736Z,32.51
2022-08-19T16:19:36.478Z,32.46
2022-08-19T16:22:06.778Z,32.42
2022-08-19T16:24:55.008Z,32.33
2022-08-19T16:27:22.608Z,32.29
2022-08-19T16:29:50.798Z,32.24
2022-08-19T16:32:19.736Z,32.20
2022-08-19T16:34:47.745Z,32.19
2022-08-19T16:37:17.020Z,32.16
2022-08-19T16:39:45.286Z,32.14
2022-08-19T16:42:13.941Z,32.14
2022-08-19T16:44:45.172Z,32.13
2022-08-19T16:47:13.597Z,32.11
2022-08-19T16:49:53.211Z,32.09
2022-08-19T16:52:26.197Z,32.08
2022-08-19T16:54:53.613Z,32.08
2022-08-19T16:57:20.730Z,32.06
2022-08-19T16:59:49.542Z,32.04
2022-08-19T17:02:23.578Z,32.02
2022-08-19T17:04:59.256Z,31.97
2022-08-19T17:07:27.982Z,31.92
2022-08-19T17:09:57.130Z,31.87
2022-08-19T17:12:31.749Z,31.83
2022-08-19T17:15:04.828Z,31.75
2022-08-19T17:17:31.989Z,31.66
2022-08-19T17:20:00.584Z,31.59
2022-08-19T17:22:28.021Z,31.52
2022-08-19T17:24:58.062Z,31.49
2022-08-19T17:27:31.631Z,31.44
2022-08-19T17:30:02.514Z,31.37
2022-08-19T17:32:30.736Z,31.32
2022-08-19T17:34:57.682Z,31.25
2022-08-19T17:37:28.523Z,31.19
2022-08-19T17:39:56.213Z,31.08
2022-08-19T17:42:24.217Z,30.97
2022-08-19T17:44:51.237Z,30.87
2022-08-19T17:47:19.667Z,30.77
2022-08-19T17:49:47.221Z,30.70
2022-08-19T17:52:15.226Z,30.60
2022-08-19T17:54:42.797Z,30.52
2022-08-19T17:57:10.308Z,30.44
2022-08-19T17:59:37.684Z,30.33
2022-08-19T18:02:07.508Z,30.24
2022-08-19T18:04:46.785Z,30.14
2022-08-19T18:10:50.427Z,29.92
2022-08-19T18:13:29.913Z,29.80
2022-08-19T18:16:01.329Z,29.72
2022-08-19T18:44:00.458Z,28.64
2022-08-19T18:47:52.746Z,28.54
2022-08-19T18:50:39.344Z,28.42
2022-08-19T18:53:30.544Z,28.42
2022-08-19T18:56:36.285Z,28.37
2022-08-19T19:02:45.304Z,28.18
2022-08-19T19:06:00.562Z,28.12
2022-08-19T19:08:40.096Z,28.07
2022-08-19T19:11:12.191Z,28.48
2022-08-19T19:13:56.805Z,28.24
2022-08-19T19:16:44.313Z,28.03
2022-08-19T19:19:25.532Z,27.87
2022-08-19T19:22:26.483Z,27.76
2022-08-19T19:27:58.358Z,27.55
2022-08-19T19:30:47.103Z,27.46
2022-08-19T19:33:30.385Z,27.38
2022-08-19T19:36:33.410Z,27.35
2022-08-19T19:39:11.410Z,27.24
2022-08-19T19:42:21.507Z,27.13
2022-08-19T19:45:04.317Z,27.08
2022-08-19T19:47:31.351Z,26.99
2022-08-19T19:50:14.405Z,26.99
2022-08-19T19:53:13.671Z,26.90
2022-08-19T19:55:44.810Z,26.84
2022-08-19T19:58:29.310Z,26.78
2022-08-19T20:01:09.420Z,26.72
2022-08-19T20:03:58.794Z,26.67
2022-08-19T20:06:34.552Z,26.61
2022-08-19T20:09:20.197Z,26.56
2022-08-19T20:11:58.336Z,26.51
2022-08-19T20:14:38.488Z,26.46
2022-08-19T20:17:12.786Z,26.38
2022-08-19T20:25:29.135Z,26.24
2022-08-19T20:28:02.066Z,26.19
2022-08-19T20:30:33.103Z,26.17
2022-08-19T20:33:06.799Z,26.12
2022-08-19T20:35:44.381Z,26.10
2022-08-19T20:38:16.125Z,26.05
2022-08-19T20:41:04.267Z,26.02
2022-08-19T20:43:34.232Z,25.98
2022-08-19T20:46:04.523Z,25.96
2022-08-19T20:48:31.890Z,25.91
2022-08-19T20:50:59.844Z,25.88
2022-08-19T20:53:27.371Z,25.83
2022-08-19T20:55:58.707Z,25.82
2022-08-19T20:58:29.444Z,25.78
2022-08-19T21:01:00.480Z,25.75
2022-08-19T21:03:43.395Z,25.71
2022-08-19T21:06:15.197Z,25.66
2022-08-19T21:08:43.719Z,25.65
2022-08-19T21:11:17.375Z,25.60
2022-08-19T21:13:48.370Z,25.57
2022-08-19T21:16:23.197Z,25.53
2022-08-19T21:18:52.909Z,25.53
2022-08-19T21:21:29.879Z,25.49
2022-08-19T21:23:56.977Z,25.46
2022-08-19T21:26:33.151Z,25.45
2022-08-19T21:29:06.966Z,25.41
2022-08-19T21:31:33.995Z,25.38
2022-08-19T21:34:01.430Z,25.34
2022-08-19T21:36:28.640Z,25.30
2022-08-19T21:38:58.358Z,25.27
2022-08-19T21:41:34.357Z,25.22
2022-08-19T21:44:01.398Z,25.19
2022-08-19T21:46:31.248Z,25.17
2022-08-19T21:49:00.199Z,25.14
2022-08-19T21:51:27.121Z,25.09
2022-08-19T21:53:54.520Z,25.09
2022-08-19T21:56:21.530Z,25.04
2022-08-19T21:58:48.521Z,25.05
2022-08-19T22:01:18.529Z,25.02
2022-08-19T22:03:45.372Z,25.02
2022-08-19T22:06:12.333Z,25.02
2022-08-19T22:08:48.219Z,25.01
2022-08-19T22:11:17.813Z,25.02
2022-08-19T22:13:45.377Z,25.01
2022-08-19T22:16:14.028Z,25.02
2022-08-19T22:18:41.001Z,25.01
2022-08-19T22:21:11.661Z,25.03
2022-08-19T22:23:41.857Z,25.05
2022-08-19T22:26:08.843Z,25.05
2022-08-19T22:28:35.722Z,25.03
2022-08-19T22:31:02.643Z,25.05
2022-08-19T22:33:32.222Z,25.07
2022-08-19T22:36:00.309Z,25.03
2022-08-19T22:38:27.342Z,25.03
2022-08-19T22:40:56.342Z,25.05
2022-08-19T22:43:30.131Z,25.05
2022-08-19T22:45:59.247Z,25.00
2022-08-19T22:48:30.631Z,25.01
2022-08-19T22:51:17.128Z,24.97
2022-08-19T22:53:46.927Z,24.95
2022-08-19T22:56:18.077Z,24.92
2022-08-19T22:58:46.981Z,24.89
2022-08-19T23:01:27.275Z,24.85
2022-08-19T23:03:57.278Z,24.81
2022-08-19T23:06:26.927Z,24.74
2022-08-19T23:09:04.877Z,24.70
2022-08-19T23:11:41.582Z,24.68
2022-08-19T23:14:10.368Z,24.58
2022-08-19T23:16:37.220Z,24.56
2022-08-19T23:19:04.592Z,24.53
2022-08-19T23:21:31.418Z,24.51
2022-08-19T23:23:58.730Z,24.48
2022-08-19T23:26:25.556Z,24.40
2022-08-19T23:29:11.062Z,24.38
2022-08-19T23:31:37.937Z,24.32
2022-08-19T23:34:05.887Z,24.32
2022-08-19T23:36:32.740Z,24.29
2022-08-19T23:39:00.737Z,24.27
2022-08-19T23:41:28.000Z,24.23
2022-08-19T23:43:55.180Z,24.19
2022-08-19T23:46:27.475Z,24.20
2022-08-19T23:48:56.725Z,24.16
2022-08-19T23:51:26.724Z,24.16
2022-08-19T23:53:54.030Z,24.15
2022-08-19T23:56:21.497Z,24.12
2022-08-19T23:58:49.041Z,24.13
